createdAt,value
2022-12-23T00:00:27.880Z,7.00
2022-12-23T00:02:55.202Z,7.00
2022-12-23T00:05:22.452Z,6.90
2022-12-23T00:07:49.470Z,6.90
2022-12-23T00:10:16.389Z,6.80
2022-12-23T00:13:01.675Z,6.90
2022-12-23T00:15:28.709Z,6.80
2022-12-23T00:17:55.673Z,6.80
2022-12-23T00:20:22.598Z,6.90
2022-12-23T00:23:04.829Z,6.90
2022-12-23T00:25:41.364Z,7.00
2022-12-23T00:28:14.763Z,7.00
2022-12-23T00:30:46.415Z,7.10
2022-12-23T00:33:14.246Z,7.10
2022-12-23T00:35:41.696Z,7.10
2022-12-23T00:38:08.692Z,7.10
2022-12-23T00:40:54.278Z,7.20
2022-12-23T00:43:21.439Z,7.10
2022-12-23T00:45:48.499Z,7.20
2022-12-23T00:48:34.239Z,7.20
2022-12-23T00:51:01.227Z,7.30
2022-12-23T00:53:28.090Z,7.20
2022-12-23T00:55:55.010Z,7.30
2022-12-23T00:58:21.941Z,7.30
2022-12-23T01:01:07.659Z,7.30
2022-12-23T01:03:53.309Z,7.40
2022-12-23T01:06:20.255Z,7.40
2022-12-23T01:08:47.143Z,7.40
2022-12-23T01:11:14.159Z,7.40
2022-12-23T01:13:41.146Z,7.40
2022-12-23T01:16:15.020Z,7.40
2022-12-23T01:18:44.629Z,7.40
2022-12-23T01:21:11.757Z,7.50
2022-12-23T01:23:38.813Z,7.50
2022-12-23T01:26:06.132Z,7.50
2022-12-23T01:28:33.223Z,7.50
2022-12-23T01:31:00.386Z,7.50
2022-12-23T01:33:27.362Z,7.50
2022-12-23T01:36:01.246Z,7.60
2022-12-23T01:38:28.263Z,7.60
2022-12-23T01:40:55.269Z,7.60
2022-12-23T01:43:22.324Z,7.60
2022-12-23T01:45:49.545Z,7.70
2022-12-23T01:48:25.981Z,7.70
2022-12-23T01:50:52.982Z,7.70
2022-12-23T01:53:21.101Z,7.70
2022-12-23T01:56:03.838Z,7.70
2022-12-23T01:58:31.951Z,7.70
2022-12-23T02:01:17.379Z,7.70
2022-12-23T02:03:44.803Z,7.70
2022-12-23T02:06:39.380Z,7.80
2022-12-23T02:09:19.065Z,7.80
2022-12-23T02:12:04.886Z,7.80
2022-12-23T02:14:53.615Z,7.80
2022-12-23T02:17:21.676Z,7.80
2022-12-23T02:20:07.157Z,7.80
2022-12-23T02:22:40.045Z,7.80
2022-12-23T02:25:20.689Z,7.80
2022-12-23T02:27:55.907Z,7.80
2022-12-23T02:30:27.525Z,7.80
2022-12-23T02:33:12.940Z,7.90
2022-12-23T02:35:42.832Z,7.80
2022-12-23T02:38:17.361Z,7.90
2022-12-23T02:40:49.395Z,7.90
2022-12-23T02:43:18.955Z,7.90
2022-12-23T02:45:47.415Z,7.90
2022-12-23T02:48:19.781Z,8.00
2022-12-23T02:50:46.792Z,8.00
2022-12-23T02:53:19.206Z,8.00
2022-12-23T02:55:46.627Z,8.00
2022-12-23T02:58:13.673Z,8.00
2022-12-23T03:00:40.764Z,8.00
2022-12-23T03:03:07.768Z,8.00
2022-12-23T03:05:36.557Z,8.00
2022-12-23T03:08:04.140Z,8.00
2022-12-23T03:10:37.053Z,8.00
2022-12-23T03:13:22.989Z,8.00
2022-12-23T03:16:08.361Z,8.00
2022-12-23T03:18:54.059Z,8.00
2022-12-23T03:21:32.127Z,8.00
2022-12-23T03:24:05.194Z,8.00
2022-12-23T03:26:42.747Z,8.10
2022-12-23T03:29:14.100Z,8.10
2022-12-23T03:31:41.098Z,8.10
2022-12-23T03:34:12.404Z,8.10
2022-12-23T03:36:43.327Z,8.10
2022-12-23T03:39:11.031Z,8.10
2022-12-23T03:41:39.840Z,8.20
2022-12-23T03:44:08.611Z,8.20
2022-12-23T03:46:40.223Z,8.20
2022-12-23T03:49:07.949Z,8.20
2022-12-23T03:51:38.421Z,8.20
2022-12-23T03:54:07.574Z,8.20
2022-12-23T03:56:45.628Z,8.20
2022-12-23T03:59:17.483Z,8.20
2022-12-23T04:02:03.131Z,8.20
2022-12-23T04:04:49.584Z,8.30
2022-12-23T04:07:23.991Z,8.30
2022-12-23T04:09:53.858Z,8.40
2022-12-23T04:12:21.729Z,8.40
2022-12-23T04:14:48.717Z,8.40
2022-12-23T04:17:15.969Z,8.40
2022-12-23T04:19:45.397Z,8.40
2022-12-23T04:22:15.432Z,8.50
2022-12-23T04:24:42.558Z,8.50
2022-12-23T04:27:10.203Z,8.50
2022-12-23T04:29:37.256Z,8.60
2022-12-23T04:32:04.568Z,8.60
2022-12-23T04:34:31.552Z,8.60
2022-12-23T04:36:58.498Z,8.60
2022-12-23T04:39:25.361Z,8.60
2022-12-23T04:41:52.360Z,8.60
2022-12-23T04:44:19.337Z,8.70
2022-12-23T04:46:46.532Z,8.70
2022-12-23T04:49:13.554Z,8.70
2022-12-23T04:51:40.577Z,8.70
2022-12-23T04:54:07.543Z,8.70
2022-12-23T04:56:34.399Z,8.80
2022-12-23T04:59:02.424Z,8.80
2022-12-23T05:01:29.882Z,8.70
2022-12-23T05:03:56.998Z,8.80
2022-12-23T05:06:23.889Z,8.80
2022-12-23T05:08:50.800Z,8.80
2022-12-23T05:11:17.706Z,8.80
2022-12-23T05:13:44.633Z,8.80
2022-12-23T05:16:11.597Z,8.80
2022-12-23T05:18:38.625Z,8.80
2022-12-23T05:21:05.596Z,8.80
2022-12-23T05:23:32.581Z,8.80
2022-12-23T05:25:59.617Z,8.80
2022-12-23T05:28:26.673Z,8.80
2022-12-23T05:30:59.906Z,8.80
2022-12-23T05:33:27.234Z,8.80
2022-12-23T05:35:54.269Z,8.80
2022-12-23T05:38:21.256Z,8.80
2022-12-23T05:40:48.337Z,8.80
2022-12-23T05:43:15.457Z,8.80
2022-12-23T05:45:42.504Z,8.80
2022-12-23T05:48:09.654Z,8.80
2022-12-23T05:50:37.144Z,8.80
2022-12-23T05:53:04.216Z,8.80
2022-12-23T05:55:31.167Z,8.90
2022-12-23T05:57:58.105Z,8.80
2022-12-23T06:00:25.118Z,8.90
2022-12-23T06:02:54.097Z,8.90
2022-12-23T06:05:21.480Z,8.90
2022-12-23T06:07:48.407Z,8.90
2022-12-23T06:10:15.444Z,8.90
2022-12-23T06:12:42.514Z,9.00
2022-12-23T06:15:09.756Z,9.00
2022-12-23T06:17:36.782Z,9.00
2022-12-23T06:20:04.034Z,9.00
2022-12-23T06:22:31.422Z,9.00
2022-12-23T06:24:58.398Z,9.00
2022-12-23T06:27:25.344Z,9.00
2022-12-23T06:29:52.248Z,9.00
2022-12-23T06:32:19.235Z,9.00
2022-12-23T06:34:46.862Z,9.00
2022-12-23T06:37:13.913Z,9.00
2022-12-23T06:39:40.953Z,9.00
2022-12-23T06:42:07.939Z,9.10
2022-12-23T06:44:34.863Z,9.00
2022-12-23T06:47:01.795Z,9.10
2022-12-23T06:49:28.876Z,9.10
2022-12-23T06:51:55.784Z,9.10
2022-12-23T06:54:22.767Z,9.10
2022-12-23T06:56:49.654Z,9.10
2022-12-23T06:59:16.662Z,9.10
2022-12-23T07:01:43.787Z,9.20
2022-12-23T07:04:10.925Z,9.10
2022-12-23T07:06:39.551Z,9.10
2022-12-23T07:09:07.371Z,9.20
2022-12-23T07:11:34.651Z,9.20
2022-12-23T07:14:01.574Z,9.20
2022-12-23T07:16:28.674Z,9.20
2022-12-23T07:18:55.798Z,9.20
2022-12-23T07:21:28.998Z,9.20
2022-12-23T07:23:56.612Z,9.20
2022-12-23T07:26:23.565Z,9.30
2022-12-23T07:28:50.499Z,9.30
2022-12-23T07:31:17.622Z,9.30
2022-12-23T07:33:44.700Z,9.30
2022-12-23T07:36:11.663Z,9.30
2022-12-23T07:38:38.619Z,9.30
2022-12-23T07:41:05.635Z,9.30
2022-12-23T07:43:32.601Z,9.30
2022-12-23T07:46:00.831Z,9.30
2022-12-23T07:48:28.214Z,9.30
2022-12-23T07:51:00.120Z,9.30
2022-12-23T07:53:27.072Z,9.30
2022-12-23T07:55:56.583Z,9.40
2022-12-23T07:58:24.304Z,9.40
2022-12-23T08:00:51.325Z,9.40
2022-12-23T08:03:18.396Z,9.40
2022-12-23T08:05:45.369Z,9.40
2022-12-23T08:08:12.702Z,9.50
2022-12-23T08:10:47.801Z,9.50
2022-12-23T08:13:15.204Z,9.60
2022-12-23T08:15:42.242Z,9.60
2022-12-23T08:18:09.131Z,9.70
2022-12-23T08:20:36.038Z,9.70
2022-12-23T08:23:03.044Z,9.70
2022-12-23T08:25:29.959Z,9.70
2022-12-23T08:27:56.877Z,9.70
2022-12-23T08:30:23.812Z,9.70
2022-12-23T08:32:50.750Z,9.70
2022-12-23T08:35:17.695Z,9.60
2022-12-23T08:37:44.745Z,9.70
2022-12-23T08:40:11.901Z,9.70
2022-12-23T08:42:38.850Z,9.70
2022-12-23T08:45:05.876Z,9.70
2022-12-23T08:47:32.810Z,9.70
2022-12-23T08:49:59.773Z,9.70
2022-12-23T08:52:26.724Z,9.70
2022-12-23T08:54:53.667Z,9.70
2022-12-23T08:57:20.604Z,9.70
2022-12-23T08:59:48.288Z,9.80
2022-12-23T09:02:15.393Z,9.80
2022-12-23T09:04:42.677Z,9.80
2022-12-23T09:07:09.552Z,9.80
2022-12-23T09:09:37.467Z,9.70
2022-12-23T09:12:04.669Z,9.70
2022-12-23T09:14:31.663Z,9.70
2022-12-23T09:16:58.635Z,9.70
2022-12-23T09:19:25.576Z,9.70
2022-12-23T09:21:52.532Z,9.80
2022-12-23T09:24:19.482Z,9.80
2022-12-23T09:26:46.474Z,9.80
2022-12-23T09:29:13.405Z,9.80
2022-12-23T09:31:40.484Z,9.70
2022-12-23T09:34:07.554Z,9.70
2022-12-23T09:36:34.528Z,9.70
2022-12-23T09:39:01.512Z,9.70
2022-12-23T09:41:47.548Z,9.70
2022-12-23T09:44:26.696Z,9.70
2022-12-23T09:46:54.765Z,9.70
2022-12-23T09:49:21.803Z,9.70
2022-12-23T09:51:48.996Z,9.70
2022-12-23T09:54:26.180Z,9.70
2022-12-23T09:56:53.216Z,9.70
2022-12-23T09:59:43.579Z,9.80
2022-12-23T10:02:19.679Z,9.90
2022-12-23T10:04:55.799Z,9.90
2022-12-23T10:07:26.337Z,10.00
2022-12-23T10:09:53.378Z,10.10
2022-12-23T10:12:34.385Z,10.10
2022-12-23T10:15:07.079Z,10.10
2022-12-23T10:17:38.994Z,10.20
2022-12-23T10:20:06.140Z,10.20
2022-12-23T10:22:35.345Z,10.30
2022-12-23T10:25:02.449Z,10.30
2022-12-23T10:27:30.489Z,10.30
2022-12-23T10:30:13.989Z,10.30
2022-12-23T10:32:48.171Z,10.20
2022-12-23T10:35:21.264Z,10.30
2022-12-23T10:37:50.828Z,10.30
2022-12-23T10:40:27.784Z,10.30
2022-12-23T10:42:57.433Z,10.40
2022-12-23T10:45:44.723Z,10.40
2022-12-23T10:48:14.659Z,10.40
2022-12-23T10:50:47.418Z,10.40
2022-12-23T10:53:17.352Z,10.50
2022-12-23T10:55:44.403Z,10.50
2022-12-23T10:58:15.600Z,10.50
2022-12-23T11:00:43.397Z,10.50
2022-12-23T11:03:16.524Z,10.60
2022-12-23T11:05:43.685Z,10.70
2022-12-23T11:08:10.581Z,10.70
2022-12-23T11:10:37.543Z,10.80
2022-12-23T11:13:04.477Z,10.90
2022-12-23T11:15:32.685Z,10.90
2022-12-23T11:18:00.531Z,10.90
2022-12-23T11:20:27.457Z,10.90
2022-12-23T11:22:55.328Z,11.00
2022-12-23T11:25:24.925Z,11.10
2022-12-23T11:27:56.594Z,11.20
2022-12-23T11:30:23.532Z,11.10
2022-12-23T11:32:50.665Z,11.10
2022-12-23T11:35:35.787Z,11.00
2022-12-23T11:38:03.666Z,11.00
2022-12-23T11:40:31.947Z,10.90
2022-12-23T11:42:59.889Z,10.90
2022-12-23T11:45:27.904Z,10.90
2022-12-23T11:47:54.910Z,10.80
2022-12-23T11:50:24.910Z,10.80
2022-12-23T11:52:52.575Z,10.70
2022-12-23T11:55:26.182Z,10.80
2022-12-23T11:57:53.032Z,10.80
2022-12-23T12:00:24.078Z,10.80
2022-12-23T12:02:52.806Z,10.70
2022-12-23T12:05:22.927Z,10.60
2022-12-23T12:07:50.241Z,10.60
2022-12-23T12:10:27.766Z,10.60
2022-12-23T12:12:58.783Z,10.50
2022-12-23T12:15:44.602Z,10.50
2022-12-23T12:18:12.669Z,10.40
2022-12-23T12:20:41.109Z,10.40
2022-12-23T12:23:18.697Z,10.30
2022-12-23T12:25:53.702Z,10.30
2022-12-23T12:28:21.614Z,10.30
2022-12-23T12:30:56.633Z,10.30
2022-12-23T12:33:25.527Z,10.30
2022-12-23T12:36:03.358Z,10.30
2022-12-23T12:38:34.831Z,10.30
2022-12-23T12:41:02.734Z,10.30
2022-12-23T12:43:31.595Z,10.30
2022-12-23T12:46:04.610Z,10.30
2022-12-23T12:48:40.685Z,10.20
2022-12-23T12:51:11.262Z,10.20
2022-12-23T12:53:38.270Z,10.20
2022-12-23T12:56:12.423Z,10.20
2022-12-23T12:58:39.415Z,10.20
2022-12-23T13:01:17.702Z,10.20
2022-12-23T13:04:03.559Z,10.20
2022-12-23T13:06:30.488Z,10.20
2022-12-23T13:09:07.680Z,10.20
2022-12-23T13:11:34.689Z,10.20
2022-12-23T13:14:04.223Z,10.30
2022-12-23T13:16:37.122Z,10.30
2022-12-23T13:19:04.148Z,10.30
2022-12-23T13:21:37.173Z,10.40
2022-12-23T13:24:04.502Z,10.40
2022-12-23T13:26:48.853Z,10.40
2022-12-23T13:29:34.354Z,10.40
2022-12-23T13:32:19.851Z,10.50
2022-12-23T13:34:53.975Z,10.40
2022-12-23T13:37:20.960Z,10.40
2022-12-23T13:39:47.890Z,10.40
2022-12-23T13:42:23.453Z,10.40
2022-12-23T13:44:50.447Z,10.30
2022-12-23T13:47:17.273Z,10.30
2022-12-23T13:50:13.771Z,10.20
2022-12-23T13:53:00.517Z,10.20
2022-12-23T13:55:33.470Z,10.20
2022-12-23T13:58:12.696Z,10.20
2022-12-23T14:00:39.603Z,10.20
2022-12-23T14:03:09.365Z,10.20
2022-12-23T14:05:41.065Z,10.20
2022-12-23T14:08:21.380Z,10.20
2022-12-23T14:10:59.668Z,10.20
2022-12-23T14:13:45.800Z,10.20
2022-12-23T14:16:21.637Z,10.20
2022-12-23T14:19:07.328Z,10.20
2022-12-23T14:21:52.871Z,10.10
2022-12-23T14:24:28.992Z,10.10
2022-12-23T14:27:14.474Z,10.10
2022-12-23T14:30:05.142Z,10.10
2022-12-23T14:32:53.311Z,10.00
2022-12-23T14:35:27.783Z,10.00
2022-12-23T14:38:13.450Z,10.00
2022-12-23T14:40:43.615Z,9.90
2022-12-23T14:43:22.959Z,9.90
2022-12-23T14:45:50.622Z,9.90
2022-12-23T14:48:35.753Z,9.90
2022-12-23T14:51:03.366Z,9.90
2022-12-23T14:53:30.921Z,9.90
2022-12-23T14:56:10.002Z,9.90
2022-12-23T14:58:45.923Z,9.80
2022-12-23T15:01:15.548Z,9.80
2022-12-23T15:03:44.602Z,9.80
2022-12-23T15:06:11.647Z,9.80
2022-12-23T15:08:39.413Z,9.80
2022-12-23T15:11:07.587Z,9.80
2022-12-23T15:13:34.531Z,9.70
2022-12-23T15:16:02.382Z,9.70
2022-12-23T15:18:29.595Z,9.70
2022-12-23T15:21:00.288Z,9.70
2022-12-23T15:23:27.438Z,9.70
2022-12-23T15:25:55.823Z,9.60
2022-12-23T15:28:23.305Z,9.60
2022-12-23T15:30:54.206Z,9.60
2022-12-23T15:34:01.687Z,9.60
2022-12-23T15:36:12.410Z,9.60
2022-12-23T15:38:39.448Z,9.60
2022-12-23T15:41:13.240Z,9.60
2022-12-23T15:43:43.045Z,9.60
2022-12-23T15:46:24.978Z,9.60
2022-12-23T15:48:56.407Z,9.60
2022-12-23T15:52:06.236Z,9.60
2022-12-23T15:54:24.595Z,9.60
2022-12-23T15:56:52.102Z,9.50
2022-12-23T15:59:25.755Z,9.50
2022-12-23T16:01:52.891Z,9.50
2022-12-23T16:04:21.547Z,9.50
2022-12-23T16:06:49.729Z,9.50
2022-12-23T16:09:16.704Z,9.40
2022-12-23T16:11:59.022Z,9.40
2022-12-23T16:14:34.992Z,9.40
2022-12-23T16:17:07.961Z,9.40
2022-12-23T16:19:41.052Z,9.40
2022-12-23T16:22:21.071Z,9.40
2022-12-23T16:25:08.372Z,9.40
2022-12-23T16:27:41.302Z,9.30
2022-12-23T16:30:11.707Z,9.30
2022-12-23T16:32:46.357Z,9.30
2022-12-23T16:35:23.044Z,9.30
2022-12-23T16:37:51.402Z,9.30
2022-12-23T16:40:19.579Z,9.30
2022-12-23T16:42:46.504Z,9.30
2022-12-23T16:45:13.983Z,9.30
2022-12-23T16:47:41.654Z,9.20
2022-12-23T16:50:10.067Z,9.30
2022-12-23T16:52:36.991Z,9.20
2022-12-23T16:55:06.700Z,9.20
2022-12-23T16:57:34.077Z,9.20
2022-12-23T17:00:01.019Z,9.20
2022-12-23T17:02:28.659Z,9.20
2022-12-23T17:04:55.688Z,9.20
2022-12-23T17:07:24.291Z,9.20
2022-12-23T17:09:51.305Z,9.20
2022-12-23T17:12:18.218Z,9.10
2022-12-23T17:14:45.119Z,9.20
2022-12-23T17:17:12.900Z,9.10
2022-12-23T17:19:39.855Z,9.10
2022-12-23T17:22:06.764Z,9.10
2022-12-23T17:24:33.712Z,9.10
2022-12-23T17:27:00.669Z,9.10
2022-12-23T17:29:28.318Z,9.10
2022-12-23T17:31:55.333Z,9.00
2022-12-23T17:34:22.747Z,9.00
2022-12-23T17:36:50.921Z,9.10
2022-12-23T17:39:18.469Z,9.00
2022-12-23T17:41:45.551Z,9.10
2022-12-23T17:44:13.595Z,9.10
2022-12-23T17:46:40.647Z,9.10
2022-12-23T17:49:08.733Z,9.10
2022-12-23T17:51:35.671Z,9.10
2022-12-23T17:54:04.643Z,9.10
2022-12-23T17:56:32.007Z,9.10
2022-12-23T17:58:59.028Z,9.10
2022-12-23T18:01:26.988Z,9.10
2022-12-23T18:03:54.467Z,9.10
2022-12-23T18:06:21.852Z,9.10
2022-12-23T18:08:49.001Z,9.10
2022-12-23T18:11:19.192Z,9.10
2022-12-23T18:13:46.511Z,9.10
2022-12-23T18:16:13.443Z,9.10
2022-12-23T18:18:46.364Z,9.10
2022-12-23T18:21:21.107Z,9.10
2022-12-23T18:23:48.062Z,9.10
2022-12-23T18:26:17.674Z,9.10
2022-12-23T18:28:44.659Z,9.00
2022-12-23T18:31:18.697Z,9.10
2022-12-23T18:33:46.038Z,9.10
2022-12-23T18:36:18.621Z,9.10
2022-12-23T18:38:45.657Z,9.10
2022-12-23T18:41:12.672Z,9.00
2022-12-23T18:43:39.694Z,9.10
2022-12-23T18:46:06.690Z,9.00
2022-12-23T18:48:33.656Z,9.00
2022-12-23T18:51:00.587Z,9.10
2022-12-23T18:53:27.545Z,9.00
2022-12-23T18:55:54.568Z,9.10
2022-12-23T18:58:21.777Z,9.00
2022-12-23T19:00:49.261Z,9.00
2022-12-23T19:03:22.660Z,9.00
2022-12-23T19:05:49.987Z,9.00
2022-12-23T19:08:23.554Z,9.00
2022-12-23T19:10:53.202Z,9.00
2022-12-23T19:13:20.107Z,9.00
2022-12-23T19:15:47.081Z,9.00
2022-12-23T19:18:14.756Z,9.00
2022-12-23T19:20:42.648Z,9.00
2022-12-23T19:23:09.888Z,9.00
2022-12-23T19:25:36.820Z,9.00
2022-12-23T19:28:03.788Z,9.00
2022-12-23T19:30:30.775Z,9.00
2022-12-23T19:32:57.789Z,9.00
2022-12-23T19:35:24.824Z,9.00
2022-12-23T19:37:51.794Z,9.00
2022-12-23T19:40:19.246Z,9.00
2022-12-23T19:42:46.177Z,9.00
2022-12-23T19:45:13.232Z,9.00
2022-12-23T19:47:40.257Z,9.00
2022-12-23T19:50:07.400Z,9.00
2022-12-23T19:52:34.454Z,9.00
2022-12-23T19:55:01.346Z,9.00
2022-12-23T19:57:28.579Z,8.90
2022-12-23T19:59:55.651Z,8.90
2022-12-23T20:02:23.545Z,8.90
2022-12-23T20:04:50.621Z,8.90
2022-12-23T20:07:17.610Z,8.90
2022-12-23T20:09:44.565Z,8.80
2022-12-23T20:12:11.585Z,8.90
2022-12-23T20:14:38.524Z,8.90
2022-12-23T20:17:05.513Z,8.90
2022-12-23T20:19:32.598Z,8.90
2022-12-23T20:21:59.542Z,8.90
2022-12-23T20:24:26.707Z,8.90
2022-12-23T20:26:53.704Z,8.90
2022-12-23T20:29:20.715Z,8.90
2022-12-23T20:31:47.715Z,8.90
2022-12-23T20:34:15.419Z,8.90
2022-12-23T20:36:42.408Z,8.80
2022-12-23T20:39:09.405Z,8.80
2022-12-23T20:41:36.303Z,8.80
2022-12-23T20:44:32.988Z,8.70
2022-12-23T20:46:50.291Z,8.70
2022-12-23T20:49:17.304Z,8.70
2022-12-23T20:51:44.240Z,8.70
2022-12-23T20:54:11.149Z,8.70
2022-12-23T20:56:38.205Z,8.70
2022-12-23T20:59:05.192Z,8.70
2022-12-23T21:01:35.819Z,8.70
2022-12-23T21:04:04.069Z,8.70
2022-12-23T21:06:31.098Z,8.70
2022-12-23T21:08:59.778Z,8.70
2022-12-23T21:11:30.166Z,8.70
2022-12-23T21:14:02.606Z,8.70
2022-12-23T21:16:32.743Z,8.70
2022-12-23T21:18:59.843Z,8.70
2022-12-23T21:21:27.499Z,8.70
2022-12-23T21:23:55.040Z,8.70
2022-12-23T21:26:23.037Z,8.70
2022-12-23T21:28:50.329Z,8.70
2022-12-23T21:31:18.719Z,8.70
2022-12-23T21:33:46.102Z,8.70
2022-12-23T21:36:19.729Z,8.70
2022-12-23T21:38:47.969Z,8.70
2022-12-23T21:41:15.942Z,8.70
2022-12-23T21:43:43.063Z,8.70
2022-12-23T21:46:13.803Z,8.80
2022-12-23T21:48:40.799Z,8.70
2022-12-23T21:51:11.886Z,8.70
2022-12-23T21:53:38.893Z,8.70
2022-12-23T21:56:26.134Z,8.70
2022-12-23T21:59:00.338Z,8.70
2022-12-23T22:01:27.406Z,8.70
2022-12-23T22:03:54.861Z,8.70
2022-12-23T22:06:22.648Z,8.80
2022-12-23T22:08:49.654Z,8.80
2022-12-23T22:11:17.524Z,8.80
2022-12-23T22:13:44.617Z,8.70
2022-12-23T22:16:12.169Z,8.70
2022-12-23T22:18:39.214Z,8.70
2022-12-23T22:21:10.010Z,8.70
2022-12-23T22:23:37.213Z,8.70
2022-12-23T22:26:04.627Z,8.70
2022-12-23T22:28:32.264Z,8.70
2022-12-23T22:31:22.323Z,8.70
2022-12-23T22:33:49.407Z,8.70
2022-12-23T22:36:16.789Z,8.70
2022-12-23T22:38:43.791Z,8.70
2022-12-23T22:41:10.921Z,8.80
2022-12-23T22:43:37.902Z,8.70
2022-12-23T22:46:05.342Z,8.80
2022-12-23T22:48:32.418Z,8.80
2022-12-23T22:51:06.220Z,8.70
2022-12-23T22:53:33.171Z,8.80
2022-12-23T22:56:00.284Z,8.80
2022-12-23T22:58:27.575Z,8.80
2022-12-23T23:00:54.561Z,8.80
2022-12-23T23:03:21.592Z,8.80
2022-12-23T23:05:57.570Z,8.70
2022-12-23T23:08:25.009Z,8.70
2022-12-23T23:10:52.383Z,8.70
2022-12-23T23:13:19.585Z,8.70
2022-12-23T23:15:49.715Z,8.70
2022-12-23T23:18:16.650Z,8.70
2022-12-23T23:20:43.594Z,8.70
2022-12-23T23:23:10.550Z,8.80
2022-12-23T23:25:37.732Z,8.70
2022-12-23T23:28:04.849Z,8.80
2022-12-23T23:30:31.822Z,8.70
2022-12-23T23:32:58.740Z,8.70
2022-12-23T23:35:25.722Z,8.70
2022-12-23T23:37:52.668Z,8.70
2022-12-23T23:40:19.544Z,8.70
2022-12-23T23:42:46.559Z,8.70
2022-12-23T23:45:13.570Z,8.70
2022-12-23T23:47:40.515Z,8.70
2022-12-23T23:50:07.666Z,8.70
2022-12-23T23:52:34.610Z,8.70
2022-12-23T23:55:01.567Z,8.70
2022-12-23T23:57:28.630Z,8.70
2022-12-23T23:59:55.621Z,8.70
